EGKKEGAA

Guest
Details From EGKK - London Gatwick
To EGAA - Belfast Aldergrove
Flight Number -
Tags generated
Created
Modified
Stats Distance 305 nm / 566 km
Max Altitude 32,400 ft / 9,876 m
Waypoints 6
Social Downloads 11
Likes 0
Share VATSIM

Download

Looking for another format? Having issues loading an existing format? Contact us
Advertisement - Login to hide

Notes

Basic altitude profile: - Ascent Rate: 2500ft/min - Ascent Speed: 250kts - Cruise Altitude: 35000ft - Cruise Speed: 420kts - Descent Rate: 1500ft/min - Descent Speed: 250kts Options: - Use NATs: yes - Use PACOTS: yes - Use low airways: yes - Use high airways: yes

Route

EGKK HON UL10 KELLY EGAA

ID Type Via Altitude (ft/m) Position (lat/lon) Dist (leg/tot) Name
O EGKK APT - 0 / 0 51.14875 / -0.19247 - / 0 nm London Gatwick
HON VOR - 32,400 / 9,876 52.35667 / -1.66361 90 / 90 nm HONILEY VOR-DME
WAL VOR UL10 (AWY-HI) 28,400 / 8,656 53.39194 / -3.13444 81 / 172 nm WALLASEY VOR-DME
PENIL FIX UL10 (AWY-HI) 24,500 / 7,468 53.61611 / -3.66361 23 / 195 nm
KELLY FIX UL10 (AWY-HI) 24,500 / 7,468 53.90528 / -4.36417 30 / 226 nm
O EGAA APT - 0 / 0 54.65388 / -6.22001 79 / 305 nm Belfast Aldergrove

Altitude Profile

Advertisement - Login to hide

Weather


0- 5 10 15 20 25 30 35+ Temperature / °C

Clouds and Precipitation
Forecast for 2020-03-30 12:00 UTC. Updated 3 hours ago

Ground ~20,000 ft ~40,000 ft Winds

EGKK

Details ICAO EGKK (LGW)
Name London Gatwick
Region United Kingdom
Timezone Europe/London (UTC+1.0)
Stats Elevation 187 ft / 57 m (AMSL)
Location 51.148800° -0.191923°
Runways 2
Magnetic Variation 0.099° W

METAR

EGKK 301220Z 03008KT 360V060 9999 BKN023 07/02 Q1033

Decode

TAF

TAF EGKK 301057Z 3012/3118 01010KT 9999 SCT030 TEMPO 3012/3021 8000 SHRA PROB30 TEMPO 3012/3016 03015G25KT BKN012 BECMG 3106/3110 07010KT

Decode

Departure Runways

ID Width Length Bearing (true/mag) Surface Threshold Overrun Markings Lighting
08L 148 ft / 45 m 8,382 ft / 2,555 m 77.59° / 77.69° ASPHALT 1,047 ft / 319 m 0 ft / 0 m APP CENTERLINE EDGE THRESHOLD REIL-OMNI
08R 148 ft / 45 m 10,851 ft / 3,308 m 77.60° / 77.70° ASPHALT 1,289 ft / 393 m 0 ft / 0 m PREC-APP CENTERLINE EDGE THRESHOLD CALVERT-ILS TDZ REIL-OMNI
26L 148 ft / 45 m 10,851 ft / 3,308 m 257.63° / 257.73° ASPHALT 1,388 ft / 423 m 102 ft / 31 m PREC-APP CENTERLINE EDGE THRESHOLD CALVERT-ILS TDZ REIL-OMNI
26R 148 ft / 45 m 8,382 ft / 2,555 m 257.61° / 257.71° ASPHALT 1,358 ft / 414 m 0 ft / 0 m APP CENTERLINE EDGE THRESHOLD REIL-OMNI

EGAA

Details ICAO EGAA (BFS)
Name Belfast International
Region United Kingdom
Timezone Europe/London (UTC+1.0)
Stats Elevation 268 ft / 82 m (AMSL)
Location 54.653900° -6.219940°
Runways 2
Magnetic Variation 2.852° W

METAR

EGAA 301220Z 35012KT 9999 FEW025 BKN032 OVC038 09/03 Q1040

Decode

TAF

TAF EGAA 301059Z 3012/3112 35011KT 9999 FEW025 SCT035= TAF EGPD 301056Z 3012/3112 32009KT 9999 FEW020 SCT035 PROB30 TEMPO 3012/3018 32015G25KT 6000 SHRA BKN014

Decode

Destination Runways

ID Width Length Bearing (true/mag) Surface Threshold Overrun Markings Lighting
07 147 ft / 45 m 9,124 ft / 2,781 m 65.01° / 67.87° ASPHALT 0 ft / 0 m 0 ft / 0 m APP CENTERLINE EDGE THRESHOLD CALVERT
17 148 ft / 45 m 5,909 ft / 1,801 m 161.99° / 164.84° ASPHALT 525 ft / 160 m 0 ft / 0 m PREC-APP EDGE THRESHOLD CALVERT
25 147 ft / 45 m 9,124 ft / 2,781 m 245.05° / 247.90° ASPHALT 0 ft / 0 m 0 ft / 0 m PREC-APP CENTERLINE EDGE THRESHOLD CALVERT TDZ
35 148 ft / 45 m 5,909 ft / 1,801 m 342.00° / 344.85° ASPHALT 502 ft / 153 m 0 ft / 0 m APP EDGE THRESHOLD MALS

Approach Navaids

Runway Type Ident Frequency Range Bearing (true/mag) Slope Elevation
17 GS IFT 110.90 MHz 10 nm / 19 km 162.97° / 165.83 ° 3.00° 253 ft / 77 m (AMSL)
17 LOC-ILS IFT 110.90 MHz 18 nm / 33 km 162.00° / 164.85 ° - 258 ft / 79 m (AMSL)
17 DME IFT 110.90 MHz 18 nm / 33 km - - 253 ft / 77 m (AMSL)
25 DME IAG 109.90 MHz 18 nm / 33 km - - 305 ft / 93 m (AMSL)
25 LOC-ILS IAG 109.90 MHz 18 nm / 33 km 245.01° / 247.87 ° - 206 ft / 63 m (AMSL)
25 GS IAG 109.90 MHz 10 nm / 19 km 245.06° / 247.91 ° 3.00° 305 ft / 93 m (AMSL)
25 OM OM - - 245.03° / 247.88 ° - 268 ft / 82 m (AMSL)

Popular Alternatives